sensor_id;sensor_type;location;lat;lon;timestamp;P1;durP1;ratioP1;P2;durP2;ratioP2
2558;SDS011;1289;53.488;10.006;2022-11-15T00:00:08;40.03;;;27.40;;
2558;SDS011;1289;53.488;10.006;2022-11-15T00:02:55;41.03;;;26.50;;
2558;SDS011;1289;53.488;10.006;2022-11-15T00:05:40;39.90;;;27.23;;
2558;SDS011;1289;53.488;10.006;2022-11-15T00:08:29;39.00;;;27.60;;
2558;SDS011;1289;53.488;10.006;2022-11-15T00:11:15;40.23;;;27.63;;
2558;SDS011;1289;53.488;10.006;2022-11-15T00:14:00;36.10;;;25.77;;
2558;SDS011;1289;53.488;10.006;2022-11-15T00:16:46;44.93;;;28.00;;
2558;SDS011;1289;53.488;10.006;2022-11-15T00:19:32;41.87;;;26.47;;
2558;SDS011;1289;53.488;10.006;2022-11-15T00:22:17;43.90;;;28.57;;
2558;SDS011;1289;53.488;10.006;2022-11-15T00:25:04;43.43;;;28.40;;
2558;SDS011;1289;53.488;10.006;2022-11-15T00:27:50;38.80;;;27.20;;
2558;SDS011;1289;53.488;10.006;2022-11-15T00:30:36;37.73;;;26.60;;
2558;SDS011;1289;53.488;10.006;2022-11-15T00:33:21;37.50;;;26.20;;
2558;SDS011;1289;53.488;10.006;2022-11-15T00:36:07;37.43;;;26.07;;
2558;SDS011;1289;53.488;10.006;2022-11-15T00:38:54;44.73;;;27.13;;
2558;SDS011;1289;53.488;10.006;2022-11-15T00:41:40;40.13;;;28.40;;
2558;SDS011;1289;53.488;10.006;2022-11-15T00:44:26;40.57;;;27.27;;
2558;SDS011;1289;53.488;10.006;2022-11-15T00:47:11;41.17;;;26.83;;
2558;SDS011;1289;53.488;10.006;2022-11-15T00:49:56;40.13;;;28.07;;
2558;SDS011;1289;53.488;10.006;2022-11-15T00:52:41;40.60;;;27.07;;
2558;SDS011;1289;53.488;10.006;2022-11-15T00:55:27;40.07;;;26.10;;
2558;SDS011;1289;53.488;10.006;2022-11-15T00:58:13;42.97;;;29.10;;
2558;SDS011;1289;53.488;10.006;2022-11-15T01:01:05;38.07;;;25.33;;
2558;SDS011;1289;53.488;10.006;2022-11-15T01:03:51;35.93;;;25.87;;
2558;SDS011;1289;53.488;10.006;2022-11-15T01:06:36;42.90;;;26.70;;
2558;SDS011;1289;53.488;10.006;2022-11-15T01:09:21;38.97;;;26.27;;
2558;SDS011;1289;53.488;10.006;2022-11-15T01:12:06;33.10;;;24.83;;
2558;SDS011;1289;53.488;10.006;2022-11-15T01:14:54;42.87;;;27.33;;
2558;SDS011;1289;53.488;10.006;2022-11-15T01:17:39;34.47;;;24.40;;
2558;SDS011;1289;53.488;10.006;2022-11-15T01:20:24;38.80;;;25.03;;
2558;SDS011;1289;53.488;10.006;2022-11-15T01:23:10;38.13;;;26.70;;
2558;SDS011;1289;53.488;10.006;2022-11-15T01:25:58;44.67;;;28.30;;
2558;SDS011;1289;53.488;10.006;2022-11-15T01:28:43;41.80;;;26.90;;
2558;SDS011;1289;53.488;10.006;2022-11-15T01:31:30;38.70;;;26.50;;
2558;SDS011;1289;53.488;10.006;2022-11-15T01:34:15;43.40;;;25.27;;
2558;SDS011;1289;53.488;10.006;2022-11-15T01:37:00;40.03;;;26.63;;
2558;SDS011;1289;53.488;10.006;2022-11-15T01:39:46;34.50;;;22.60;;
2558;SDS011;1289;53.488;10.006;2022-11-15T01:42:31;38.80;;;25.67;;
2558;SDS011;1289;53.488;10.006;2022-11-15T01:45:16;35.30;;;23.63;;
2558;SDS011;1289;53.488;10.006;2022-11-15T01:48:03;37.53;;;24.57;;
2558;SDS011;1289;53.488;10.006;2022-11-15T01:50:48;34.80;;;24.67;;
2558;SDS011;1289;53.488;10.006;2022-11-15T01:53:34;34.13;;;23.97;;
2558;SDS011;1289;53.488;10.006;2022-11-15T01:56:23;33.90;;;24.13;;
2558;SDS011;1289;53.488;10.006;2022-11-15T01:59:10;30.00;;;22.60;;
2558;SDS011;1289;53.488;10.006;2022-11-15T02:01:55;31.30;;;22.13;;
2558;SDS011;1289;53.488;10.006;2022-11-15T02:04:43;28.03;;;20.70;;
2558;SDS011;1289;53.488;10.006;2022-11-15T02:07:29;27.07;;;21.83;;
2558;SDS011;1289;53.488;10.006;2022-11-15T02:10:17;29.43;;;20.63;;
2558;SDS011;1289;53.488;10.006;2022-11-15T02:13:03;30.27;;;19.90;;
2558;SDS011;1289;53.488;10.006;2022-11-15T02:15:51;25.20;;;18.87;;
2558;SDS011;1289;53.488;10.006;2022-11-15T02:18:41;28.77;;;20.30;;
2558;SDS011;1289;53.488;10.006;2022-11-15T02:21:33;25.47;;;20.40;;
2558;SDS011;1289;53.488;10.006;2022-11-15T02:30:57;27.90;;;20.23;;
2558;SDS011;1289;53.488;10.006;2022-11-15T02:33:48;28.37;;;22.03;;
2558;SDS011;1289;53.488;10.006;2022-11-15T02:36:40;24.77;;;19.33;;
2558;SDS011;1289;53.488;10.006;2022-11-15T02:39:28;26.20;;;18.53;;
2558;SDS011;1289;53.488;10.006;2022-11-15T02:42:19;27.80;;;21.10;;
2558;SDS011;1289;53.488;10.006;2022-11-15T02:45:26;23.90;;;18.10;;
2558;SDS011;1289;53.488;10.006;2022-11-15T02:48:14;24.60;;;18.70;;
2558;SDS011;1289;53.488;10.006;2022-11-15T02:51:00;26.73;;;18.80;;
2558;SDS011;1289;53.488;10.006;2022-11-15T02:53:45;30.07;;;21.20;;
2558;SDS011;1289;53.488;10.006;2022-11-15T02:56:30;26.73;;;20.67;;
2558;SDS011;1289;53.488;10.006;2022-11-15T02:59:36;27.97;;;18.90;;
2558;SDS011;1289;53.488;10.006;2022-11-15T03:02:42;26.97;;;20.23;;
2558;SDS011;1289;53.488;10.006;2022-11-15T03:05:35;26.57;;;18.67;;
2558;SDS011;1289;53.488;10.006;2022-11-15T03:08:23;23.97;;;19.23;;
2558;SDS011;1289;53.488;10.006;2022-11-15T03:11:13;24.93;;;19.27;;
2558;SDS011;1289;53.488;10.006;2022-11-15T03:14:00;25.00;;;19.30;;
2558;SDS011;1289;53.488;10.006;2022-11-15T03:16:48;26.37;;;19.50;;
2558;SDS011;1289;53.488;10.006;2022-11-15T03:19:37;26.13;;;20.07;;
2558;SDS011;1289;53.488;10.006;2022-11-15T03:22:28;25.43;;;18.53;;
2558;SDS011;1289;53.488;10.006;2022-11-15T03:25:16;29.63;;;21.17;;
2558;SDS011;1289;53.488;10.006;2022-11-15T03:28:03;28.37;;;19.50;;
2558;SDS011;1289;53.488;10.006;2022-11-15T03:30:50;27.20;;;20.23;;
2558;SDS011;1289;53.488;10.006;2022-11-15T03:33:36;27.37;;;19.60;;
2558;SDS011;1289;53.488;10.006;2022-11-15T03:36:22;27.33;;;19.70;;
2558;SDS011;1289;53.488;10.006;2022-11-15T03:39:10;25.20;;;18.87;;
2558;SDS011;1289;53.488;10.006;2022-11-15T03:41:57;27.60;;;20.10;;
2558;SDS011;1289;53.488;10.006;2022-11-15T03:44:51;26.90;;;20.20;;
2558;SDS011;1289;53.488;10.006;2022-11-15T03:47:39;29.73;;;21.30;;
2558;SDS011;1289;53.488;10.006;2022-11-15T03:50:26;27.07;;;20.20;;
2558;SDS011;1289;53.488;10.006;2022-11-15T03:53:12;31.67;;;21.37;;
2558;SDS011;1289;53.488;10.006;2022-11-15T03:55:59;31.17;;;20.30;;
2558;SDS011;1289;53.488;10.006;2022-11-15T03:58:44;27.77;;;21.00;;
2558;SDS011;1289;53.488;10.006;2022-11-15T04:01:29;27.77;;;21.20;;
2558;SDS011;1289;53.488;10.006;2022-11-15T04:04:15;25.67;;;19.70;;
2558;SDS011;1289;53.488;10.006;2022-11-15T04:07:00;26.20;;;19.83;;
2558;SDS011;1289;53.488;10.006;2022-11-15T04:09:45;30.37;;;20.70;;
2558;SDS011;1289;53.488;10.006;2022-11-15T04:12:50;28.63;;;20.00;;
2558;SDS011;1289;53.488;10.006;2022-11-15T04:15:35;29.80;;;20.67;;
2558;SDS011;1289;53.488;10.006;2022-11-15T04:18:20;28.30;;;20.73;;
2558;SDS011;1289;53.488;10.006;2022-11-15T04:21:06;26.57;;;20.27;;
2558;SDS011;1289;53.488;10.006;2022-11-15T04:24:10;33.70;;;20.97;;
2558;SDS011;1289;53.488;10.006;2022-11-15T04:26:58;30.00;;;22.27;;
2558;SDS011;1289;53.488;10.006;2022-11-15T04:29:45;31.33;;;21.63;;
2558;SDS011;1289;53.488;10.006;2022-11-15T04:32:30;29.57;;;22.20;;
2558;SDS011;1289;53.488;10.006;2022-11-15T04:35:16;32.90;;;23.17;;
2558;SDS011;1289;53.488;10.006;2022-11-15T04:38:01;29.37;;;22.00;;
2558;SDS011;1289;53.488;10.006;2022-11-15T04:40:47;30.10;;;22.77;;
2558;SDS011;1289;53.488;10.006;2022-11-15T04:43:32;33.00;;;22.30;;
2558;SDS011;1289;53.488;10.006;2022-11-15T04:46:19;29.80;;;21.37;;
2558;SDS011;1289;53.488;10.006;2022-11-15T04:49:05;31.93;;;21.70;;
2558;SDS011;1289;53.488;10.006;2022-11-15T04:51:50;30.13;;;22.10;;
2558;SDS011;1289;53.488;10.006;2022-11-15T04:54:35;28.60;;;20.90;;
2558;SDS011;1289;53.488;10.006;2022-11-15T04:57:20;29.77;;;21.90;;
2558;SDS011;1289;53.488;10.006;2022-11-15T05:00:10;33.07;;;23.57;;
2558;SDS011;1289;53.488;10.006;2022-11-15T05:02:58;32.13;;;21.67;;
2558;SDS011;1289;53.488;10.006;2022-11-15T05:06:01;30.50;;;21.50;;
2558;SDS011;1289;53.488;10.006;2022-11-15T05:08:46;27.83;;;21.43;;
2558;SDS011;1289;53.488;10.006;2022-11-15T05:11:32;30.43;;;21.87;;
2558;SDS011;1289;53.488;10.006;2022-11-15T05:14:17;28.10;;;21.40;;
2558;SDS011;1289;53.488;10.006;2022-11-15T05:17:02;36.17;;;20.83;;
2558;SDS011;1289;53.488;10.006;2022-11-15T05:19:49;34.90;;;22.27;;
2558;SDS011;1289;53.488;10.006;2022-11-15T05:22:35;30.13;;;20.97;;
2558;SDS011;1289;53.488;10.006;2022-11-15T05:25:21;34.10;;;21.77;;
2558;SDS011;1289;53.488;10.006;2022-11-15T05:28:06;30.80;;;21.90;;
2558;SDS011;1289;53.488;10.006;2022-11-15T05:30:51;29.83;;;20.50;;
2558;SDS011;1289;53.488;10.006;2022-11-15T05:33:37;29.43;;;22.30;;
2558;SDS011;1289;53.488;10.006;2022-11-15T05:36:27;35.70;;;23.20;;
2558;SDS011;1289;53.488;10.006;2022-11-15T05:39:14;36.90;;;23.30;;
2558;SDS011;1289;53.488;10.006;2022-11-15T05:41:59;31.47;;;21.47;;
2558;SDS011;1289;53.488;10.006;2022-11-15T05:44:47;41.13;;;25.57;;
2558;SDS011;1289;53.488;10.006;2022-11-15T05:47:33;30.77;;;21.67;;
2558;SDS011;1289;53.488;10.006;2022-11-15T05:50:19;32.00;;;23.00;;
2558;SDS011;1289;53.488;10.006;2022-11-15T05:53:06;31.80;;;21.63;;
2558;SDS011;1289;53.488;10.006;2022-11-15T05:55:52;31.30;;;22.20;;
2558;SDS011;1289;53.488;10.006;2022-11-15T05:58:37;31.03;;;21.57;;
2558;SDS011;1289;53.488;10.006;2022-11-15T06:01:22;30.23;;;21.30;;
2558;SDS011;1289;53.488;10.006;2022-11-15T06:04:08;36.47;;;22.93;;
2558;SDS011;1289;53.488;10.006;2022-11-15T06:06:53;32.67;;;22.27;;
2558;SDS011;1289;53.488;10.006;2022-11-15T06:09:39;28.40;;;21.10;;
2558;SDS011;1289;53.488;10.006;2022-11-15T06:12:24;31.53;;;21.90;;
2558;SDS011;1289;53.488;10.006;2022-11-15T06:15:10;31.97;;;21.43;;
2558;SDS011;1289;53.488;10.006;2022-11-15T06:17:55;33.47;;;23.30;;
2558;SDS011;1289;53.488;10.006;2022-11-15T06:20:42;29.50;;;22.87;;
2558;SDS011;1289;53.488;10.006;2022-11-15T06:23:27;33.47;;;22.13;;
2558;SDS011;1289;53.488;10.006;2022-11-15T06:26:13;29.67;;;22.73;;
2558;SDS011;1289;53.488;10.006;2022-11-15T06:28:59;28.73;;;21.80;;
2558;SDS011;1289;53.488;10.006;2022-11-15T06:31:44;31.33;;;21.30;;
2558;SDS011;1289;53.488;10.006;2022-11-15T06:34:29;32.83;;;21.83;;
2558;SDS011;1289;53.488;10.006;2022-11-15T06:37:14;31.50;;;22.23;;
2558;SDS011;1289;53.488;10.006;2022-11-15T06:39:59;30.90;;;22.30;;
2558;SDS011;1289;53.488;10.006;2022-11-15T06:42:46;27.33;;;19.40;;
2558;SDS011;1289;53.488;10.006;2022-11-15T06:45:31;30.43;;;22.27;;
2558;SDS011;1289;53.488;10.006;2022-11-15T06:48:17;34.17;;;22.67;;
2558;SDS011;1289;53.488;10.006;2022-11-15T06:51:02;32.47;;;20.30;;
2558;SDS011;1289;53.488;10.006;2022-11-15T06:53:48;31.90;;;21.00;;
2558;SDS011;1289;53.488;10.006;2022-11-15T06:56:33;27.80;;;20.33;;
2558;SDS011;1289;53.488;10.006;2022-11-15T06:59:20;30.03;;;20.33;;
2558;SDS011;1289;53.488;10.006;2022-11-15T07:02:05;29.70;;;21.67;;
2558;SDS011;1289;53.488;10.006;2022-11-15T07:04:50;28.03;;;21.70;;
2558;SDS011;1289;53.488;10.006;2022-11-15T07:07:36;36.00;;;21.57;;
2558;SDS011;1289;53.488;10.006;2022-11-15T07:10:21;32.50;;;21.10;;
2558;SDS011;1289;53.488;10.006;2022-11-15T07:13:08;27.10;;;20.70;;
2558;SDS011;1289;53.488;10.006;2022-11-15T07:15:55;26.50;;;21.03;;
2558;SDS011;1289;53.488;10.006;2022-11-15T07:18:40;30.87;;;22.00;;
2558;SDS011;1289;53.488;10.006;2022-11-15T07:21:25;27.17;;;20.80;;
2558;SDS011;1289;53.488;10.006;2022-11-15T07:24:10;27.77;;;20.90;;
2558;SDS011;1289;53.488;10.006;2022-11-15T07:26:55;30.67;;;19.53;;
2558;SDS011;1289;53.488;10.006;2022-11-15T07:29:40;27.47;;;19.47;;
2558;SDS011;1289;53.488;10.006;2022-11-15T07:32:27;26.60;;;18.97;;
2558;SDS011;1289;53.488;10.006;2022-11-15T07:35:12;24.80;;;19.00;;
2558;SDS011;1289;53.488;10.006;2022-11-15T07:37:59;23.83;;;19.27;;
2558;SDS011;1289;53.488;10.006;2022-11-15T07:40:45;28.60;;;19.70;;
2558;SDS011;1289;53.488;10.006;2022-11-15T07:43:31;25.80;;;19.97;;
2558;SDS011;1289;53.488;10.006;2022-11-15T07:46:17;28.50;;;21.73;;
2558;SDS011;1289;53.488;10.006;2022-11-15T07:49:04;26.73;;;21.27;;
2558;SDS011;1289;53.488;10.006;2022-11-15T07:51:49;24.03;;;19.13;;
2558;SDS011;1289;53.488;10.006;2022-11-15T07:54:34;25.03;;;19.60;;
2558;SDS011;1289;53.488;10.006;2022-11-15T07:57:20;32.60;;;21.07;;
2558;SDS011;1289;53.488;10.006;2022-11-15T08:00:05;28.87;;;20.03;;
2558;SDS011;1289;53.488;10.006;2022-11-15T08:02:51;25.77;;;20.13;;
2558;SDS011;1289;53.488;10.006;2022-11-15T08:05:39;30.50;;;20.50;;
2558;SDS011;1289;53.488;10.006;2022-11-15T08:08:24;26.43;;;20.23;;
2558;SDS011;1289;53.488;10.006;2022-11-15T08:11:10;26.50;;;20.10;;
2558;SDS011;1289;53.488;10.006;2022-11-15T08:13:55;29.63;;;19.90;;
2558;SDS011;1289;53.488;10.006;2022-11-15T08:16:40;28.63;;;18.80;;
2558;SDS011;1289;53.488;10.006;2022-11-15T08:19:25;26.30;;;18.83;;
2558;SDS011;1289;53.488;10.006;2022-11-15T08:22:11;29.70;;;19.90;;
2558;SDS011;1289;53.488;10.006;2022-11-15T08:24:56;25.47;;;18.37;;
2558;SDS011;1289;53.488;10.006;2022-11-15T08:27:42;24.50;;;18.40;;
2558;SDS011;1289;53.488;10.006;2022-11-15T08:30:27;23.10;;;18.10;;
2558;SDS011;1289;53.488;10.006;2022-11-15T08:33:13;23.50;;;18.23;;
2558;SDS011;1289;53.488;10.006;2022-11-15T08:35:59;25.90;;;18.60;;
2558;SDS011;1289;53.488;10.006;2022-11-15T08:38:46;26.53;;;19.03;;
2558;SDS011;1289;53.488;10.006;2022-11-15T08:41:31;25.40;;;18.93;;
2558;SDS011;1289;53.488;10.006;2022-11-15T08:44:19;23.97;;;18.63;;
2558;SDS011;1289;53.488;10.006;2022-11-15T08:47:04;24.37;;;18.60;;
2558;SDS011;1289;53.488;10.006;2022-11-15T08:49:49;22.27;;;18.57;;
2558;SDS011;1289;53.488;10.006;2022-11-15T08:52:34;23.30;;;18.83;;
2558;SDS011;1289;53.488;10.006;2022-11-15T08:55:21;25.50;;;19.87;;
2558;SDS011;1289;53.488;10.006;2022-11-15T08:58:06;24.77;;;19.07;;
2558;SDS011;1289;53.488;10.006;2022-11-15T09:00:51;22.50;;;18.40;;
2558;SDS011;1289;53.488;10.006;2022-11-15T09:03:36;25.43;;;18.70;;
2558;SDS011;1289;53.488;10.006;2022-11-15T09:06:22;22.20;;;16.40;;
2558;SDS011;1289;53.488;10.006;2022-11-15T09:09:07;20.07;;;16.70;;
2558;SDS011;1289;53.488;10.006;2022-11-15T09:11:53;20.23;;;13.33;;
2558;SDS011;1289;53.488;10.006;2022-11-15T09:14:38;18.13;;;14.83;;
2558;SDS011;1289;53.488;10.006;2022-11-15T09:17:24;17.23;;;15.43;;
2558;SDS011;1289;53.488;10.006;2022-11-15T09:20:09;19.43;;;14.57;;
2558;SDS011;1289;53.488;10.006;2022-11-15T09:22:58;17.77;;;15.87;;
2558;SDS011;1289;53.488;10.006;2022-11-15T09:25:44;19.80;;;16.80;;
2558;SDS011;1289;53.488;10.006;2022-11-15T09:28:31;20.20;;;15.70;;
2558;SDS011;1289;53.488;10.006;2022-11-15T09:31:17;18.87;;;16.77;;
2558;SDS011;1289;53.488;10.006;2022-11-15T09:34:02;23.33;;;17.57;;
2558;SDS011;1289;53.488;10.006;2022-11-15T09:36:47;17.67;;;15.33;;
2558;SDS011;1289;53.488;10.006;2022-11-15T09:39:32;20.63;;;16.00;;
2558;SDS011;1289;53.488;10.006;2022-11-15T09:42:21;18.30;;;16.07;;
2558;SDS011;1289;53.488;10.006;2022-11-15T09:45:22;19.17;;;15.90;;
2558;SDS011;1289;53.488;10.006;2022-11-15T09:48:23;18.07;;;15.73;;
2558;SDS011;1289;53.488;10.006;2022-11-15T09:51:17;20.00;;;15.70;;
2558;SDS011;1289;53.488;10.006;2022-11-15T09:53:48;17.97;;;15.40;;
2558;SDS011;1289;53.488;10.006;2022-11-15T09:56:19;17.93;;;15.50;;
2558;SDS011;1289;53.488;10.006;2022-11-15T09:58:49;20.73;;;17.30;;
2558;SDS011;1289;53.488;10.006;2022-11-15T10:04:07;21.00;;;17.23;;
2558;SDS011;1289;53.488;10.006;2022-11-15T10:06:35;20.27;;;15.73;;
2558;SDS011;1289;53.488;10.006;2022-11-15T10:09:04;22.80;;;17.40;;
2558;SDS011;1289;53.488;10.006;2022-11-15T10:11:36;17.23;;;15.43;;
2558;SDS011;1289;53.488;10.006;2022-11-15T10:14:04;19.40;;;15.60;;
2558;SDS011;1289;53.488;10.006;2022-11-15T10:16:42;18.57;;;16.50;;
2558;SDS011;1289;53.488;10.006;2022-11-15T10:19:21;21.43;;;15.87;;
2558;SDS011;1289;53.488;10.006;2022-11-15T10:21:55;19.10;;;17.00;;
2558;SDS011;1289;53.488;10.006;2022-11-15T10:24:26;19.40;;;15.87;;
2558;SDS011;1289;53.488;10.006;2022-11-15T10:26:54;21.10;;;16.00;;
2558;SDS011;1289;53.488;10.006;2022-11-15T10:29:21;20.30;;;15.87;;
2558;SDS011;1289;53.488;10.006;2022-11-15T10:31:50;23.13;;;18.17;;
2558;SDS011;1289;53.488;10.006;2022-11-15T10:34:17;18.90;;;16.40;;
2558;SDS011;1289;53.488;10.006;2022-11-15T10:36:45;17.77;;;15.40;;
2558;SDS011;1289;53.488;10.006;2022-11-15T10:39:12;18.80;;;15.83;;
2558;SDS011;1289;53.488;10.006;2022-11-15T10:41:40;17.77;;;15.17;;
2558;SDS011;1289;53.488;10.006;2022-11-15T10:47:21;19.03;;;16.67;;
2558;SDS011;1289;53.488;10.006;2022-11-15T10:49:54;20.00;;;15.63;;
2558;SDS011;1289;53.488;10.006;2022-11-15T10:52:22;22.00;;;15.37;;
2558;SDS011;1289;53.488;10.006;2022-11-15T10:54:50;19.60;;;16.77;;
2558;SDS011;1289;53.488;10.006;2022-11-15T10:57:20;18.20;;;14.60;;
2558;SDS011;1289;53.488;10.006;2022-11-15T10:59:49;19.17;;;16.83;;
2558;SDS011;1289;53.488;10.006;2022-11-15T11:02:28;21.37;;;15.30;;
2558;SDS011;1289;53.488;10.006;2022-11-15T11:04:56;17.70;;;14.97;;
2558;SDS011;1289;53.488;10.006;2022-11-15T11:07:24;16.83;;;14.30;;
2558;SDS011;1289;53.488;10.006;2022-11-15T11:09:57;17.00;;;13.80;;
2558;SDS011;1289;53.488;10.006;2022-11-15T11:12:28;17.50;;;15.17;;
2558;SDS011;1289;53.488;10.006;2022-11-15T11:14:57;16.23;;;14.37;;
2558;SDS011;1289;53.488;10.006;2022-11-15T11:17:29;16.40;;;14.30;;
2558;SDS011;1289;53.488;10.006;2022-11-15T11:20:00;18.00;;;15.63;;
2558;SDS011;1289;53.488;10.006;2022-11-15T11:22:30;16.23;;;14.60;;
2558;SDS011;1289;53.488;10.006;2022-11-15T11:25:04;17.77;;;14.73;;
2558;SDS011;1289;53.488;10.006;2022-11-15T11:27:42;18.67;;;15.40;;
2558;SDS011;1289;53.488;10.006;2022-11-15T11:30:14;16.73;;;14.93;;
2558;SDS011;1289;53.488;10.006;2022-11-15T11:32:58;17.43;;;14.70;;
2558;SDS011;1289;53.488;10.006;2022-11-15T11:35:32;17.20;;;15.07;;
2558;SDS011;1289;53.488;10.006;2022-11-15T11:38:17;17.67;;;15.07;;
2558;SDS011;1289;53.488;10.006;2022-11-15T11:40:59;17.57;;;15.80;;
2558;SDS011;1289;53.488;10.006;2022-11-15T11:43:32;18.83;;;14.63;;
2558;SDS011;1289;53.488;10.006;2022-11-15T11:46:06;17.43;;;15.63;;
2558;SDS011;1289;53.488;10.006;2022-11-15T11:48:42;17.70;;;15.63;;
2558;SDS011;1289;53.488;10.006;2022-11-15T11:51:12;18.77;;;13.70;;
2558;SDS011;1289;53.488;10.006;2022-11-15T11:53:43;18.10;;;15.50;;
2558;SDS011;1289;53.488;10.006;2022-11-15T11:56:17;16.87;;;14.50;;
2558;SDS011;1289;53.488;10.006;2022-11-15T11:58:47;18.43;;;14.40;;
2558;SDS011;1289;53.488;10.006;2022-11-15T12:01:14;16.97;;;14.60;;
2558;SDS011;1289;53.488;10.006;2022-11-15T12:03:45;20.27;;;14.60;;
2558;SDS011;1289;53.488;10.006;2022-11-15T12:06:17;20.97;;;15.83;;
2558;SDS011;1289;53.488;10.006;2022-11-15T12:08:49;16.70;;;15.00;;
2558;SDS011;1289;53.488;10.006;2022-11-15T12:11:20;16.20;;;14.07;;
2558;SDS011;1289;53.488;10.006;2022-11-15T12:13:48;16.00;;;13.27;;
2558;SDS011;1289;53.488;10.006;2022-11-15T12:16:18;15.57;;;13.13;;
2558;SDS011;1289;53.488;10.006;2022-11-15T12:18:50;15.07;;;13.47;;
2558;SDS011;1289;53.488;10.006;2022-11-15T12:21:19;13.77;;;12.40;;
2558;SDS011;1289;53.488;10.006;2022-11-15T12:23:50;14.40;;;12.87;;
2558;SDS011;1289;53.488;10.006;2022-11-15T12:26:22;14.30;;;11.83;;
2558;SDS011;1289;53.488;10.006;2022-11-15T12:28:52;13.77;;;12.37;;
2558;SDS011;1289;53.488;10.006;2022-11-15T12:31:21;14.63;;;13.00;;
2558;SDS011;1289;53.488;10.006;2022-11-15T12:33:54;19.60;;;14.80;;
2558;SDS011;1289;53.488;10.006;2022-11-15T12:36:34;16.00;;;13.77;;
2558;SDS011;1289;53.488;10.006;2022-11-15T12:39:03;12.70;;;11.40;;
2558;SDS011;1289;53.488;10.006;2022-11-15T12:41:31;17.07;;;12.53;;
2558;SDS011;1289;53.488;10.006;2022-11-15T12:43:58;14.30;;;12.87;;
2558;SDS011;1289;53.488;10.006;2022-11-15T12:49:45;14.23;;;11.97;;
2558;SDS011;1289;53.488;10.006;2022-11-15T12:52:13;18.67;;;13.47;;
2558;SDS011;1289;53.488;10.006;2022-11-15T13:03:26;15.13;;;13.57;;
2558;SDS011;1289;53.488;10.006;2022-11-15T13:06:08;13.47;;;12.07;;
2558;SDS011;1289;53.488;10.006;2022-11-15T13:08:57;14.27;;;12.80;;
2558;SDS011;1289;53.488;10.006;2022-11-15T13:11:42;13.57;;;11.87;;
2558;SDS011;1289;53.488;10.006;2022-11-15T13:14:34;14.07;;;12.53;;
2558;SDS011;1289;53.488;10.006;2022-11-15T13:17:23;13.20;;;11.77;;
2558;SDS011;1289;53.488;10.006;2022-11-15T13:20:00;13.63;;;12.20;;
2558;SDS011;1289;53.488;10.006;2022-11-15T13:22:39;14.37;;;12.53;;
2558;SDS011;1289;53.488;10.006;2022-11-15T13:25:27;13.63;;;12.17;;
2558;SDS011;1289;53.488;10.006;2022-11-15T13:28:09;16.63;;;12.93;;
2558;SDS011;1289;53.488;10.006;2022-11-15T13:30:37;14.90;;;12.60;;
2558;SDS011;1289;53.488;10.006;2022-11-15T13:33:07;15.73;;;13.50;;
2558;SDS011;1289;53.488;10.006;2022-11-15T13:35:45;14.73;;;12.30;;
2558;SDS011;1289;53.488;10.006;2022-11-15T13:38:17;15.50;;;13.43;;
2558;SDS011;1289;53.488;10.006;2022-11-15T13:40:45;12.97;;;11.20;;
2558;SDS011;1289;53.488;10.006;2022-11-15T13:43:19;15.13;;;11.93;;
2558;SDS011;1289;53.488;10.006;2022-11-15T13:46:03;14.13;;;12.73;;
2558;SDS011;1289;53.488;10.006;2022-11-15T13:48:30;16.17;;;13.90;;
2558;SDS011;1289;53.488;10.006;2022-11-15T13:50:58;21.90;;;13.83;;
2558;SDS011;1289;53.488;10.006;2022-11-15T13:53:27;16.87;;;12.53;;
2558;SDS011;1289;53.488;10.006;2022-11-15T13:55:53;14.83;;;13.27;;
2558;SDS011;1289;53.488;10.006;2022-11-15T13:58:21;15.90;;;12.70;;
2558;SDS011;1289;53.488;10.006;2022-11-15T14:00:48;15.70;;;13.90;;
2558;SDS011;1289;53.488;10.006;2022-11-15T14:03:25;13.93;;;12.17;;
2558;SDS011;1289;53.488;10.006;2022-11-15T14:06:03;14.17;;;12.23;;
2558;SDS011;1289;53.488;10.006;2022-11-15T14:08:34;14.93;;;13.00;;
2558;SDS011;1289;53.488;10.006;2022-11-15T14:11:13;14.37;;;12.87;;
2558;SDS011;1289;53.488;10.006;2022-11-15T14:13:41;12.57;;;11.30;;
2558;SDS011;1289;53.488;10.006;2022-11-15T14:16:12;12.90;;;11.50;;
2558;SDS011;1289;53.488;10.006;2022-11-15T14:18:41;14.70;;;12.27;;
2558;SDS011;1289;53.488;10.006;2022-11-15T14:21:10;12.00;;;10.80;;
2558;SDS011;1289;53.488;10.006;2022-11-15T14:23:38;12.57;;;10.97;;
2558;SDS011;1289;53.488;10.006;2022-11-15T14:26:04;12.23;;;11.03;;
2558;SDS011;1289;53.488;10.006;2022-11-15T14:28:32;13.20;;;11.17;;
2558;SDS011;1289;53.488;10.006;2022-11-15T14:31:04;14.30;;;11.47;;
2558;SDS011;1289;53.488;10.006;2022-11-15T14:33:33;13.77;;;12.20;;
2558;SDS011;1289;53.488;10.006;2022-11-15T14:36:02;13.80;;;10.97;;
2558;SDS011;1289;53.488;10.006;2022-11-15T14:38:30;12.70;;;11.40;;
2558;SDS011;1289;53.488;10.006;2022-11-15T14:40:58;15.60;;;12.93;;
2558;SDS011;1289;53.488;10.006;2022-11-15T14:43:25;14.00;;;12.03;;
2558;SDS011;1289;53.488;10.006;2022-11-15T14:45:52;13.90;;;12.27;;
2558;SDS011;1289;53.488;10.006;2022-11-15T14:48:18;16.90;;;13.40;;
2558;SDS011;1289;53.488;10.006;2022-11-15T14:50:45;13.30;;;12.00;;
2558;SDS011;1289;53.488;10.006;2022-11-15T14:53:12;13.40;;;11.90;;
2558;SDS011;1289;53.488;10.006;2022-11-15T14:55:39;13.80;;;12.30;;
2558;SDS011;1289;53.488;10.006;2022-11-15T14:58:08;13.00;;;11.77;;
2558;SDS011;1289;53.488;10.006;2022-11-15T15:00:35;13.93;;;10.73;;
2558;SDS011;1289;53.488;10.006;2022-11-15T15:03:02;12.00;;;10.60;;
2558;SDS011;1289;53.488;10.006;2022-11-15T15:05:30;14.30;;;12.17;;
2558;SDS011;1289;53.488;10.006;2022-11-15T15:07:58;15.10;;;11.83;;
2558;SDS011;1289;53.488;10.006;2022-11-15T15:10:25;15.10;;;11.03;;
2558;SDS011;1289;53.488;10.006;2022-11-15T15:12:54;15.80;;;12.57;;
2558;SDS011;1289;53.488;10.006;2022-11-15T15:15:24;12.60;;;11.30;;
2558;SDS011;1289;53.488;10.006;2022-11-15T15:17:52;14.53;;;11.70;;
2558;SDS011;1289;53.488;10.006;2022-11-15T15:20:18;13.90;;;12.50;;
2558;SDS011;1289;53.488;10.006;2022-11-15T15:22:45;15.23;;;11.67;;
2558;SDS011;1289;53.488;10.006;2022-11-15T15:25:19;11.87;;;10.30;;
2558;SDS011;1289;53.488;10.006;2022-11-15T15:27:47;14.00;;;12.00;;
2558;SDS011;1289;53.488;10.006;2022-11-15T15:30:14;14.63;;;11.60;;
2558;SDS011;1289;53.488;10.006;2022-11-15T15:32:42;17.03;;;12.93;;
2558;SDS011;1289;53.488;10.006;2022-11-15T15:35:11;15.00;;;11.50;;
2558;SDS011;1289;53.488;10.006;2022-11-15T15:37:38;13.77;;;12.27;;
2558;SDS011;1289;53.488;10.006;2022-11-15T15:40:08;14.53;;;12.57;;
2558;SDS011;1289;53.488;10.006;2022-11-15T15:42:38;12.27;;;11.07;;
2558;SDS011;1289;53.488;10.006;2022-11-15T15:45:05;13.20;;;11.80;;
2558;SDS011;1289;53.488;10.006;2022-11-15T15:47:32;12.97;;;11.50;;
2558;SDS011;1289;53.488;10.006;2022-11-15T15:50:00;11.73;;;10.40;;
2558;SDS011;1289;53.488;10.006;2022-11-15T15:52:26;14.03;;;12.50;;
2558;SDS011;1289;53.488;10.006;2022-11-15T15:54:53;15.07;;;12.60;;
2558;SDS011;1289;53.488;10.006;2022-11-15T15:57:19;14.10;;;12.57;;
2558;SDS011;1289;53.488;10.006;2022-11-15T15:59:46;13.03;;;11.63;;
2558;SDS011;1289;53.488;10.006;2022-11-15T16:02:12;13.00;;;11.27;;
2558;SDS011;1289;53.488;10.006;2022-11-15T16:04:39;13.73;;;12.30;;
2558;SDS011;1289;53.488;10.006;2022-11-15T16:07:20;14.97;;;13.33;;
2558;SDS011;1289;53.488;10.006;2022-11-15T16:09:48;12.57;;;11.27;;
2558;SDS011;1289;53.488;10.006;2022-11-15T16:12:27;14.50;;;12.30;;
2558;SDS011;1289;53.488;10.006;2022-11-15T16:14:54;13.83;;;12.23;;